Historyczne dane pomiarowe

Dodano dane terminowe – wersja testowa.

Dane z okresu 1951-2019

Wersja bazy: 1.34 [2019-03-16, lista zmian], aktualizacja planowana na 2019-04-15

Dane meteo z obszaru Polski uzyskane na podstawie danych udostępnionych przez Instytut Meteorologii i Gospodarki Wodnej – Państwowy Instytut Badawczy.

 

Wybierz Datę:    

       

TemperaturaWilgotnośćWiatrCiśnienieOpadyŚniegCzas trwania zjawisk
 Stacja t tx tn tng RH VA  wxwx mslp ppp RRR   cm mm wxwxwxwxwxwxwx
1961-08-14 14.9 18.9 7.7- 78.3- 4.0 2.3---- 0.0------------
1961-08-13 14.4 18.5 13.3- 87.8- 6.7 2.3---- 2.3------------
1961-08-12 18.6 22.0 15.8- 88.0- 6.7 1.0---- 5.4------------
1961-08-11 21.5 27.0 17.4- 81.5- 5.7 0.7---- 3.4------------
1961-08-10 20.5 26.7 16.5- 86.0- 4.7 1.7---- 12.6------------
1961-08-09 22.1 28.9 13.6- 69.0- 2.7 2.3---- 1.4------------
1961-08-08 19.0 24.1 12.9- 67.5- 3.7 2.7---- 0.0------------
1961-08-07 22.2 29.8 17.7- 75.5- 4.3 3.0---- 1.1------------
1961-08-06 23.8 30.7 13.5- 63.8- 4.0 4.0---- 0.0------------
1961-08-05 17.5 22.6 13.8- 79.8- 4.3 3.3---- 0.0------------
1961-08-04 16.1 21.0 9.3- 73.0- 5.0 2.0---- 0.0------------
1961-08-03 17.7 22.4 13.5- 84.5- 7.7 1.7---- 0.0------------
1961-08-02 18.6 25.1 10.2- 69.8- 0.7 2.7---- 0.0------------
1961-08-01 13.9 15.6 12.7- 86.5- 5.7 6.0---- 0.0------------
1961-07-31 14.4 17.8 13.2- 87.8- 6.7 5.0---- 0.2------------
1961-07-30 13.4 14.8 12.6- 99.0- 8.0 2.3---- 20.8------------
1961-07-29 14.6 16.7 13.4- 91.5- 8.0 2.0---- 9.8------------
1961-07-28 18.3 23.7 16.3- 87.0- 7.3 3.0---- 23.9------------
1961-07-27 20.5 26.6 14.9- 71.5- 6.3 2.7---- 0.1------------
1961-07-26 17.0 20.4 12.1- 72.8- 7.7 4.0---- 0.0------------
1961-07-25 14.5 18.2 8.5- 80.8- 7.3 3.3---- 0.0------------
1961-07-24 15.5 19.3 12.8- 79.5- 6.0 2.3---- 0.0------------
1961-07-23 15.1 17.8 12.0- 83.5- 7.7 2.7---- 0.0------------
1961-07-22 15.0 20.0 12.7- 89.3- 6.7 4.7---- 4.7------------
1961-07-21 15.4 21.0 10.9- 87.0- 4.0 3.0---- 4.5------------
1961-07-20 16.7 23.1 6.9- 77.5- 5.7 0.7---- 0.0------------
1961-07-19 15.6 22.1 9.3- 77.5- 7.0 2.3---- 0.0------------
1961-07-18 13.0 17.9 9.3- 90.3- 6.3 4.0---- 0.1------------
1961-07-17 15.9 24.0 9.3- 86.3- 6.0 2.0---- 3.4------------
1961-07-16 16.6 21.1 7.8- 83.8- 8.0 3.7---- 1.8------------
1961-07-15 17.1 23.8 9.3- 75.5- 4.7 2.7---- 0.0------------
1961-07-14 15.4 24.3 13.2- 72.3- 7.0 4.3---- 0.0------------
1961-07-13 23.9 29.3 11.0- 62.8- 5.3 3.7---- 0.2------------
1961-07-12 18.3 27.1 10.4- 81.0- 4.3 2.7---- 2.1------------
1961-07-11 15.0 21.6 10.0- 72.0- 4.0 3.7---- 0.4------------
1961-07-10 14.7 19.2 10.4- 76.3- 6.3 3.7---- 1.3------------
1961-07-09 17.0 23.5 9.5- 66.3- 4.0 4.0---- 0.0------------
1961-07-08 15.5 20.9 8.7- 68.8- 0.0 1.7---- 0.0------------
1961-07-07 11.9 18.6 8.1- 82.8- 3.7 4.7---- 0.3------------
1961-07-06 13.1 18.1 6.4- 77.3- 4.3 4.0---- 0.0------------
1961-07-05 14.1 20.6 11.9- 75.5- 5.7 4.3---- 0.0------------
1961-07-04 21.6 27.4 16.8- 74.3- 5.3 3.3---- 1.7------------
1961-07-03 22.6 31.1 10.0- 66.5- 0.3 0.7---- 0.0------------
1961-07-02 20.9 28.8 9.1- 68.5- 0.0 2.3---- 0.0------------
1961-07-01 18.3 24.7 9.6- 71.3- 1.3 1.7---- 0.0------------
1961-06-30 17.6 24.5 9.3- 75.8- 0.0 2.0---- 0.0------------
1961-06-29 13.5 17.6 8.8- 86.0- 5.3 2.7---- 0.0------------
1961-06-28 14.5 23.3 13.0- 85.0- 6.0 3.7---- 5.2------------
1961-06-27 24.5 32.3 15.5- 63.5- 3.3 3.3---- 6.2------------
1961-06-26 21.9 28.8 14.1- 72.5- 4.0 2.3---- 2.3------------
1961-06-25 20.0 27.6 11.8- 75.8- 1.7 4.7---- 0.0------------
1961-06-24 16.8 23.6 10.6- 80.0- 2.7 4.3---- 0.0------------
1961-06-23 16.9 22.1 14.7- 88.8- 5.3 2.3---- 3.5------------
1961-06-22 16.0 21.7 8.8- 72.0- 3.7 2.7---- 4.7------------
1961-06-21 16.8 23.0 4.0- 72.8- 4.7 2.7---- 2.3------------
1961-06-20 14.3 20.5 7.5- 74.8- 1.0 4.0---- 0.0------------
1961-06-19 16.9 22.2 14.2- 83.3- 5.0 2.3---- 0.2------------
1961-06-18 19.1 24.7 12.0- 70.5- 5.3 3.0---- 0.0------------
1961-06-17 15.8 22.3 9.3- 81.0- 5.3 4.0---- 0.0------------
1961-06-16 12.9 17.3 10.2- 91.8- 8.0 4.0---- 1.0------------
337.2 ms

 

Źródłem pochodzenia danych jest Instytut Meteorologii i Gospodarki Wodnej – Państwowy Instytut Badawczy. Dane Instytutu Meteorologii i Gospodarki Wodnej – Państwowego Instytutu Badawczego zostały przetworzone.

Dane źródłowe można odnaleźć na stronie https://dane.imgw.pl